Time;durP1;ratioP1;P1;durP2;ratioP2;P2;SDS_P1;SDS_P2;PMS_P1;PMS_P2;Temp;Humidity;BMP_temperature;BMP_pressure;BME280_temperature;BME280_humidity;BME280_pressure;Samples;Min_cycle;Max_cycle;Signal;HPM_P1;HPM_P2
2024/03/22 00:01:50;;;;;;;15.45;9.00;;;;;;;7.48;100.00;101896.94;6104976;23;20036;-84
2024/03/22 00:04:16;;;;;;;18.35;9.35;;;;;;;7.50;100.00;101889.53;6105773;23;20014;-84
2024/03/22 00:06:43;;;;;;;16.40;9.73;;;;;;;7.52;100.00;101884.78;6129068;23;20013;-84
2024/03/22 00:09:10;;;;;;;15.95;9.30;;;;;;;7.54;100.00;101886.22;6129217;23;20021;-85
2024/03/22 00:11:36;;;;;;;15.05;9.35;;;;;;;7.59;100.00;101881.03;6129062;23;20020;-84
2024/03/22 00:14:03;;;;;;;13.02;9.15;;;;;;;7.60;100.00;101863.19;6153462;23;20017;-86
2024/03/22 00:16:28;;;;;;;;;;;;;;;7.60;100.00;101865.88;6129703;23;20105;-85
2024/03/22 00:18:54;;;;;;;16.33;9.07;;;;;;;7.60;100.00;101856.00;6081788;23;19944;-85
2024/03/22 00:21:21;;;;;;;17.77;9.25;;;;;;;7.62;100.00;101850.44;6152711;23;20088;-84
2024/03/22 00:23:47;;;;;;;14.38;9.48;;;;;;;7.62;100.00;101853.13;6103958;23;20023;-84
2024/03/22 00:26:12;;;;;;;18.00;9.43;;;;;;;7.63;100.00;101846.75;6104503;23;20347;-85
2024/03/22 00:28:38;;;;;;;13.48;8.95;;;;;;;7.60;100.00;101839.19;6129772;23;20013;-83
2024/03/22 00:31:04;;;;;;;15.85;8.73;;;;;;;7.62;100.00;101845.13;6128785;23;20333;-85
2024/03/22 00:33:30;;;;;;;16.60;10.07;;;;;;;7.61;100.00;101836.31;6154798;23;20076;-83
2024/03/22 00:35:56;;;;;;;16.30;10.18;;;;;;;7.61;100.00;101836.31;6127791;23;20092;-84
2024/03/22 00:38:21;;;;;;;18.30;9.85;;;;;;;7.61;100.00;101836.31;6104504;23;20049;-83
2024/03/22 00:40:47;;;;;;;16.63;9.15;;;;;;;7.61;100.00;101840.81;6129086;23;20021;-84
2024/03/22 00:43:13;;;;;;;15.40;8.88;;;;;;;7.60;100.00;101837.34;6153508;23;20032;-84
2024/03/22 00:45:39;;;;;;;18.48;9.88;;;;;;;7.61;100.00;101824.84;6154048;23;20089;-83
2024/03/22 00:48:05;;;;;;;17.67;10.25;;;;;;;7.60;100.00;101817.88;6129822;23;20067;-83
2024/03/22 00:50:30;;;;;;;20.15;10.27;;;;;;;7.59;100.00;101821.59;6125964;23;20091;-83
2024/03/22 00:52:56;;;;;;;16.65;10.45;;;;;;;7.58;100.00;101818.06;6127935;23;20087;-83
2024/03/22 00:55:23;;;;;;;16.00;8.98;;;;;;;7.60;100.00;101813.34;6152990;23;20021;-85
2024/03/22 00:57:48;;;;;;;17.33;9.90;;;;;;;7.60;100.00;101807.22;6126922;23;20021;-84
2024/03/22 01:00:15;;;;;;;17.45;10.60;;;;;;;7.58;100.00;101798.59;6127673;23;20009;-85
2024/03/22 01:02:42;;;;;;;15.95;10.27;;;;;;;7.58;100.00;101803.94;6152880;23;20006;-85
2024/03/22 01:05:07;;;;;;;15.73;9.98;;;;;;;7.58;100.00;101793.28;6153018;23;20020;-85
2024/03/22 01:07:33;;;;;;;20.25;11.15;;;;;;;7.59;100.00;101794.94;6149110;23;20080;-83
2024/03/22 01:09:59;;;;;;;19.60;10.25;;;;;;;7.61;100.00;101798.19;6127753;23;20095;-83
2024/03/22 01:12:25;;;;;;;17.75;10.30;;;;;;;7.62;100.00;101783.81;6081442;23;20024;-84
2024/03/22 01:14:51;;;;;;;17.50;10.13;;;;;;;7.62;100.00;101789.13;6130286;23;20029;-83
2024/03/22 01:17:17;;;;;;;18.25;10.02;;;;;;;7.60;100.00;101776.03;6105457;23;20017;-83
2024/03/22 01:19:42;;;;;;;17.88;9.48;;;;;;;7.63;100.00;101770.25;6104132;23;20527;-84
2024/03/22 01:22:08;;;;;;;19.35;10.93;;;;;;;7.63;100.00;101769.44;6153733;23;20017;-82
2024/03/22 01:24:34;;;;;;;19.40;11.35;;;;;;;7.63;100.00;101764.09;6130064;23;20021;-83
2024/03/22 01:27:00;;;;;;;16.00;10.30;;;;;;;7.65;100.00;101767.34;6153857;23;20026;-84
2024/03/22 01:29:30;;;;;;;17.95;10.38;;;;;;;7.65;100.00;101759.34;6105440;23;20337;-84
2024/03/22 01:31:55;;;;;;;17.63;11.07;;;;;;;7.66;100.00;101753.81;6129342;23;20099;-84
2024/03/22 01:34:21;;;;;;;20.00;11.00;;;;;;;7.66;100.00;101751.16;6128319;23;20017;-85
2024/03/22 01:36:46;;;;;;;20.83;11.18;;;;;;;7.65;100.00;101735.34;6129766;23;20018;-83
2024/03/22 01:39:14;;;;;;;21.35;11.68;;;;;;;7.64;100.00;101733.72;6129270;23;20060;-85
2024/03/22 01:41:40;;;;;;;18.95;11.18;;;;;;;7.64;100.00;101723.88;6128559;23;20045;-83
2024/03/22 01:44:06;;;;;;;20.27;12.45;;;;;;;7.64;100.00;101713.22;6128978;23;20474;-86
2024/03/22 01:46:32;;;;;;;20.00;12.18;;;;;;;7.68;100.00;101702.91;6128386;23;20352;-85
2024/03/22 01:48:58;;;;;;;18.63;12.60;;;;;;;7.69;100.00;101693.06;6127879;23;20023;-85
2024/03/22 01:51:24;;;;;;;21.52;13.68;;;;;;;7.71;100.00;101690.97;6102108;23;20510;-84
2024/03/22 01:53:52;;;;;;;22.33;13.07;;;;;;;7.72;100.00;101692.59;6103290;23;20088;-85
2024/03/22 01:56:19;;;;;;;21.60;13.00;;;;;;;7.72;100.00;101676.59;6126717;23;20526;-84
2024/03/22 01:58:45;;;;;;;22.77;13.88;;;;;;;7.73;100.00;101668.41;6101949;23;20017;-85
2024/03/22 02:01:11;;;;;;;21.45;13.38;;;;;;;7.76;100.00;101670.59;6126156;23;20027;-86
2024/03/22 02:03:37;;;;;;;24.13;14.93;;;;;;;7.76;100.00;101667.13;6124371;23;20496;-84
2024/03/22 02:06:03;;;;;;;25.75;15.27;;;;;;;7.79;100.00;101662.16;6127711;23;20017;-85
2024/03/22 02:08:28;;;;;;;23.48;14.75;;;;;;;7.80;100.00;101658.44;6135327;23;20017;-86
2024/03/22 02:10:54;;;;;;;22.40;14.25;;;;;;;7.83;100.00;101665.97;6109772;23;20044;-85
2024/03/22 02:13:20;;;;;;;23.80;13.80;;;;;;;7.86;100.00;101662.88;6133990;23;20152;-85
2024/03/22 02:15:45;;;;;;;22.67;13.77;;;;;;;7.87;100.00;101651.16;6159298;23;20017;-84
2024/03/22 02:18:11;;;;;;;20.40;13.63;;;;;;;7.87;100.00;101656.47;6134381;23;20017;-85
2024/03/22 02:20:38;;;;;;;23.88;14.77;;;;;;;7.90;100.00;101642.69;6133555;23;20024;-85
2024/03/22 02:23:03;;;;;;;21.77;14.57;;;;;;;7.90;100.00;101642.69;6135012;23;20020;-84
2024/03/22 02:25:29;;;;;;;22.98;14.02;;;;;;;7.90;100.00;101634.69;6183821;23;20012;-84
2024/03/22 02:27:55;;;;;;;22.90;13.95;;;;;;;7.94;100.00;101633.19;6183603;23;20017;-84
2024/03/22 02:30:22;;;;;;;22.45;14.25;;;;;;;7.94;100.00;101635.03;6182898;23;20463;-84
2024/03/22 02:32:47;;;;;;;25.40;14.13;;;;;;;7.97;100.00;101633.75;6107569;23;20083;-84
2024/03/22 02:35:13;;;;;;;25.25;15.65;;;;;;;7.95;100.00;101639.34;6109983;23;20204;-85
2024/03/22 02:37:40;;;;;;;24.38;14.88;;;;;;;7.99;100.00;101637.00;6158045;23;20023;-86
2024/03/22 02:40:06;;;;;;;25.90;16.73;;;;;;;8.01;100.00;101634.94;6159936;23;20087;-84
2024/03/22 02:42:32;;;;;;;23.90;15.18;;;;;;;8.00;100.00;101625.31;6135187;23;20013;-85
2024/03/22 02:44:58;;;;;;;28.98;15.82;;;;;;;8.03;100.00;101635.50;6158401;23;20020;-84
2024/03/22 02:47:23;;;;;;;25.63;14.68;;;;;;;8.05;100.00;101638.75;6133795;23;20017;-84
2024/03/22 02:49:49;;;;;;;25.88;15.98;;;;;;;8.05;100.00;101641.41;6132943;23;20455;-82
2024/03/22 02:52:14;;;;;;;24.13;14.60;;;;;;;8.06;100.00;101633.22;6109267;23;20017;-83
2024/03/22 02:54:41;;;;;;;28.40;16.88;;;;;;;8.07;100.00;101640.16;6133104;23;20063;-84
2024/03/22 02:57:08;;;;;;;26.63;16.13;;;;;;;8.08;100.00;101640.97;6159136;23;20017;-83
2024/03/22 02:59:33;;;;;;;26.40;16.17;;;;;;;8.10;100.00;101630.88;6158464;23;20320;-83
2024/03/22 03:01:59;;;;;;;29.80;16.33;;;;;;;8.11;100.00;101624.50;6133210;23;20013;-83
2024/03/22 03:04:24;;;;;;;31.80;18.13;;;;;;;8.12;100.00;101626.13;6133707;23;20104;-83
2024/03/22 03:06:50;;;;;;;30.63;17.63;;;;;;;8.12;100.00;101626.13;6158060;23;20024;-82
2024/03/22 03:09:16;;;;;;;29.15;18.25;;;;;;;8.14;100.00;101621.38;6133560;23;20009;-82
2024/03/22 03:11:42;;;;;;;27.00;17.05;;;;;;;8.14;100.00;101624.03;6108943;23;20778;-82
2024/03/22 03:14:08;;;;;;;30.88;19.17;;;;;;;8.15;100.00;101615.81;6131726;23;20027;-83
2024/03/22 03:16:33;;;;;;;28.88;16.90;;;;;;;8.16;100.00;101608.59;6132005;23;20024;-83
2024/03/22 03:18:59;;;;;;;29.83;17.75;;;;;;;8.15;100.00;101598.97;6131881;23;20088;-83
2024/03/22 03:21:25;;;;;;;33.00;18.08;;;;;;;8.17;100.00;101607.56;6133196;23;20035;-82
2024/03/22 03:23:51;;;;;;;27.10;17.08;;;;;;;8.18;100.00;101595.84;6157320;23;20019;-84
2024/03/22 03:26:17;;;;;;;32.63;18.92;;;;;;;8.19;100.00;101597.47;6133541;23;20539;-81
2024/03/22 03:28:43;;;;;;;30.23;18.85;;;;;;;8.19;100.00;101581.44;6129994;23;20087;-81
2024/03/22 03:31:09;;;;;;;31.45;18.25;;;;;;;8.19;100.00;101587.59;6155831;23;20442;-82
2024/03/22 03:33:34;;;;;;;32.08;19.15;;;;;;;8.20;100.00;101583.09;6131093;23;20016;-80
2024/03/22 03:36:00;;;;;;;32.25;18.75;;;;;;;8.22;100.00;101586.34;6131578;23;20017;-83
2024/03/22 03:38:25;;;;;;;31.80;19.98;;;;;;;8.24;100.00;101581.56;6156473;23;20024;-82
2024/03/22 03:40:51;;;;;;;33.05;20.58;;;;;;;8.25;100.00;101580.50;6131917;23;20040;-83
2024/03/22 03:43:17;;;;;;;33.80;19.98;;;;;;;8.25;100.00;101577.84;6153299;23;20005;-81
2024/03/22 03:45:42;;;;;;;33.67;20.88;;;;;;;8.26;100.00;101568.78;6154422;23;20040;-82
2024/03/22 03:48:08;;;;;;;33.20;20.80;;;;;;;8.28;100.00;101574.72;6132279;23;20020;-82
2024/03/22 03:50:34;;;;;;;33.92;20.80;;;;;;;8.29;100.00;101571.00;6157295;23;20023;-81
2024/03/22 03:53:00;;;;;;;30.70;18.17;;;;;;;8.30;100.00;101564.63;6130004;23;20281;-81
2024/03/22 03:55:26;;;;;;;36.13;21.20;;;;;;;8.30;100.00;101555.81;6106228;23;20091;-80
2024/03/22 03:57:52;;;;;;;35.83;22.15;;;;;;;8.32;100.00;101554.50;6130295;23;20079;-81
2024/03/22 04:00:19;;;;;;;35.78;21.10;;;;;;;8.32;100.00;101543.03;6181980;23;20359;-82
2024/03/22 04:02:45;;;;;;;36.13;21.52;;;;;;;8.34;100.00;101552.44;6156624;23;20012;-83
2024/03/22 04:05:11;;;;;;;36.08;20.13;;;;;;;8.35;100.00;101543.41;6131478;23;20013;-82
2024/03/22 04:07:39;;;;;;;35.78;21.23;;;;;;;8.35;100.00;101538.06;6107504;23;20063;-82
2024/03/22 04:10:06;;;;;;;33.50;19.33;;;;;;;8.37;100.00;101521.81;6130628;23;20021;-83
2024/03/22 04:12:31;;;;;;;37.88;21.55;;;;;;;8.37;100.00;101516.50;6130886;23;20317;-83
2024/03/22 04:14:57;;;;;;;38.25;22.80;;;;;;;8.38;100.00;101516.25;6154711;23;20092;-83
2024/03/22 04:17:23;;;;;;;34.25;20.90;;;;;;;8.40;100.00;101514.16;6131935;23;20041;-83
2024/03/22 04:19:49;;;;;;;36.17;22.20;;;;;;;8.43;100.00;101511.00;6130249;23;20017;-83
2024/03/22 04:22:15;;;;;;;40.53;21.85;;;;;;;8.43;100.00;101494.19;6132039;23;20017;-84
2024/03/22 04:24:41;;;;;;;40.33;22.30;;;;;;;8.45;100.00;101492.91;6132054;23;20521;-82
2024/03/22 04:27:07;;;;;;;38.60;23.17;;;;;;;8.45;100.00;101490.22;6132028;23;20013;-83
2024/03/22 04:29:33;;;;;;;38.08;23.13;;;;;;;8.47;100.00;101482.81;6156678;23;20108;-84
2024/03/22 04:31:59;;;;;;;39.30;23.13;;;;;;;8.48;100.00;101483.63;6131021;23;20448;-83
2024/03/22 04:34:24;;;;;;;38.75;22.80;;;;;;;8.50;100.00;101475.38;6131663;23;20017;-81
2024/03/22 04:36:52;;;;;;;39.28;22.23;;;;;;;8.51;100.00;101477.00;6155738;23;20482;-83
2024/03/22 04:39:19;;;;;;;40.40;23.17;;;;;;;8.52;100.00;101470.59;6131650;23;20088;-82
2024/03/22 04:41:45;;;;;;;36.10;21.67;;;;;;;8.51;100.00;101472.47;6131047;23;20100;-82
2024/03/22 04:44:10;;;;;;;36.90;23.23;;;;;;;8.51;100.00;101471.66;6132419;23;20044;-83
2024/03/22 04:46:36;;;;;;;41.85;23.02;;;;;;;8.53;100.00;101474.88;6133463;23;20447;-83
2024/03/22 04:49:02;;;;;;;36.95;23.02;;;;;;;8.54;100.00;101465.84;6157298;23;20012;-83
2024/03/22 04:51:28;;;;;;;38.97;22.15;;;;;;;8.55;100.00;101462.13;6133880;23;20017;-82
2024/03/22 04:53:54;;;;;;;40.22;22.33;;;;;;;8.55;100.00;101451.44;6157580;23;20071;-82
2024/03/22 04:56:19;;;;;;;42.83;22.05;;;;;;;8.55;100.00;101457.59;6154053;23;20017;-82
2024/03/22 04:58:45;;;;;;;39.53;22.42;;;;;;;8.54;100.00;101458.66;6156340;23;20009;-82
2024/03/22 05:01:12;;;;;;;41.05;24.33;;;;;;;8.56;100.00;101456.53;6134138;23;20017;-82
2024/03/22 05:03:38;;;;;;;40.97;23.05;;;;;;;8.56;100.00;101447.72;6134385;23;20013;-84
2024/03/22 05:06:06;;;;;;;39.28;23.75;;;;;;;8.56;100.00;101437.84;6134252;23;20096;-81
2024/03/22 05:08:32;;;;;;;37.97;22.30;;;;;;;8.57;100.00;101427.97;6158419;23;20005;-82
2024/03/22 05:10:57;;;;;;;41.22;23.55;;;;;;;8.60;100.00;101422.16;6157267;23;20019;-83
2024/03/22 05:13:23;;;;;;;37.72;22.33;;;;;;;8.60;100.00;101424.81;6139168;23;20088;-82
2024/03/22 05:15:49;;;;;;;38.10;21.52;;;;;;;8.59;100.00;101420.53;6133067;23;20071;-83
2024/03/22 05:18:14;;;;;;;41.85;24.23;;;;;;;8.61;100.00;101431.81;6157993;23;20016;-82
2024/03/22 05:20:40;;;;;;;39.97;23.75;;;;;;;8.62;100.00;101425.41;6133514;23;20040;-81
2024/03/22 05:23:06;;;;;;;41.00;23.08;;;;;;;8.62;100.00;101425.41;6133425;23;20347;-82
2024/03/22 05:25:32;;;;;;;40.58;25.13;;;;;;;8.62;100.00;101418.22;6133413;23;20020;-84
2024/03/22 05:27:57;;;;;;;39.97;24.13;;;;;;;8.63;100.00;101421.69;6158462;23;20040;-82
2024/03/22 05:30:23;;;;;;;41.05;23.17;;;;;;;8.63;100.00;101421.69;6133677;23;20100;-83
2024/03/22 05:32:50;;;;;;;43.83;24.65;;;;;;;8.66;100.00;101415.84;6132709;23;20107;-84
2024/03/22 05:35:16;;;;;;;41.45;24.05;;;;;;;8.69;100.00;101418.06;6159414;23;20025;-83
2024/03/22 05:37:42;;;;;;;43.92;24.58;;;;;;;8.69;100.00;101423.41;6133230;23;20037;-83
2024/03/22 05:40:08;;;;;;;;;;;;;;;8.70;100.00;101419.69;6134778;23;20016;-83
2024/03/22 05:42:34;;;;;;;43.15;23.90;;;;;;;8.70;100.00;101425.81;6159478;23;19916;-83
2024/03/22 05:45:01;;;;;;;45.97;26.23;;;;;;;8.72;100.00;101425.56;6134706;23;20017;-84
2024/03/22 05:47:27;;;;;;;;;;;;;;;8.72;100.00;101421.03;6135011;23;20660;-85
2024/03/22 05:49:53;;;;;;;43.28;23.30;;;;;;;8.76;100.00;101421.38;6109251;23;19979;-84
2024/03/22 05:52:18;;;;;;;45.80;25.05;;;;;;;8.81;100.00;101423.34;6133402;23;20395;-85
2024/03/22 05:54:44;;;;;;;46.05;25.17;;;;;;;8.83;100.00;101414.03;6158771;23;20246;-86
2024/03/22 05:57:11;;;;;;;48.40;26.70;;;;;;;8.87;100.00;101407.13;6132741;23;20056;-85
2024/03/22 05:59:37;;;;;;;45.17;24.23;;;;;;;8.89;100.00;101405.06;6134462;23;20013;-84
2024/03/22 06:02:03;;;;;;;52.45;26.35;;;;;;;8.93;100.00;101406.16;6134255;23;20016;-85
2024/03/22 06:04:30;;;;;;;44.95;24.40;;;;;;;8.97;100.00;101401.97;6134267;23;20024;-87
2024/03/22 06:06:55;;;;;;;49.70;28.73;;;;;;;9.00;100.00;101406.81;6109683;23;20028;-86
2024/03/22 06:09:33;;;;;;;50.80;27.13;;;;;;;9.05;100.00;101410.63;6128704;23;20017;-86
2024/03/22 06:11:59;;;;;;;;;;;;;;;9.06;100.00;101404.25;6152070;23;20029;-86
2024/03/22 06:14:25;;;;;;;53.28;28.27;;;;;;;9.09;100.00;101398.44;6100908;23;19914;-86
2024/03/22 06:16:51;;;;;;;49.15;25.85;;;;;;;9.11;100.00;101391.78;6153739;23;20010;-86
2024/03/22 06:19:16;;;;;;;46.53;26.42;;;;;;;9.13;100.00;101378.16;6128890;23;20605;-85
2024/03/22 06:21:42;;;;;;;52.58;26.23;;;;;;;9.14;100.00;101379.78;6128768;23;20053;-85
2024/03/22 06:24:07;;;;;;;53.10;29.27;;;;;;;9.16;100.00;101380.38;6153004;23;20017;-84
2024/03/22 06:26:33;;;;;;;50.22;28.17;;;;;;;9.17;100.00;101381.97;6103529;23;20017;-85
2024/03/22 06:28:59;;;;;;;51.45;28.55;;;;;;;9.18;100.00;101375.56;6127797;23;20021;-85
2024/03/22 06:31:24;;;;;;;54.33;26.73;;;;;;;9.23;100.00;101383.69;6104595;23;20013;-85
2024/03/22 06:33:50;;;;;;;52.65;28.58;;;;;;;9.26;100.00;101383.16;6128767;23;20045;-84
2024/03/22 06:36:18;;;;;;;58.22;30.05;;;;;;;9.28;100.00;101378.41;6153661;23;20013;-83
2024/03/22 06:38:45;;;;;;;50.53;28.50;;;;;;;9.33;100.00;101369.63;6128768;23;20013;-84
2024/03/22 06:41:10;;;;;;;49.10;26.33;;;;;;;9.35;100.00;101365.69;6127905;23;20020;-84
2024/03/22 06:43:36;;;;;;;50.55;28.08;;;;;;;9.39;100.00;101360.63;6153504;23;20016;-83
2024/03/22 06:46:02;;;;;;;53.97;29.17;;;;;;;9.43;100.00;101359.91;6128050;23;20013;-83
2024/03/22 06:48:28;;;;;;;55.40;29.80;;;;;;;9.45;100.00;101349.78;6128100;23;20024;-84
2024/03/22 06:50:53;;;;;;;54.05;27.98;;;;;;;9.47;100.00;101341.50;6103214;23;20017;-83
2024/03/22 06:53:19;;;;;;;52.08;29.40;;;;;;;9.50;100.00;101341.00;6152301;23;20014;-84
2024/03/22 06:55:45;;;;;;;50.67;29.30;;;;;;;9.53;100.00;101335.97;6104137;23;20017;-83
2024/03/22 06:58:10;;;;;;;50.40;28.45;;;;;;;9.54;100.00;101340.25;6151877;23;20013;-84
2024/03/22 07:00:36;;;;;;;52.17;29.02;;;;;;;9.56;100.00;101337.34;6153075;23;20017;-83
2024/03/22 07:03:02;;;;;;;54.05;29.05;;;;;;;9.58;100.00;101328.00;6151649;23;20013;-83
2024/03/22 07:05:29;;;;;;;51.88;30.08;;;;;;;9.61;100.00;101328.56;6128297;23;20678;-83
2024/03/22 07:07:57;;;;;;;53.40;27.95;;;;;;;9.62;100.00;101306.09;6127811;23;20065;-84
2024/03/22 07:10:27;;;;;;;54.67;30.60;;;;;;;9.67;100.00;101311.53;6132624;23;20017;-84
2024/03/22 07:12:56;;;;;;;57.45;29.15;;;;;;;9.66;100.00;101328.63;6133305;23;20351;-84
2024/03/22 07:15:25;;;;;;;51.05;30.10;;;;;;;9.67;100.00;101324.91;6184063;23;20108;-83
2024/03/22 07:17:51;;;;;;;55.85;30.92;;;;;;;9.71;100.00;101318.00;6182840;23;20451;-84
2024/03/22 07:20:18;;;;;;;51.88;28.55;;;;;;;9.73;100.00;101323.91;6156669;23;20013;-81
2024/03/22 07:22:44;;;;;;;56.38;28.38;;;;;;;9.75;100.00;101321.78;6132050;23;20043;-84
2024/03/22 07:25:09;;;;;;;54.33;28.50;;;;;;;9.79;100.00;101320.25;6155737;23;20403;-83
2024/03/22 07:27:36;;;;;;;58.20;32.13;;;;;;;9.79;100.00;101307.66;6109502;23;20017;-82
2024/03/22 07:30:02;;;;;;;52.05;28.67;;;;;;;9.81;100.00;101294.84;6157062;23;20016;-82
2024/03/22 07:32:29;;;;;;;;;;;;;;;9.84;100.00;101302.38;6132891;23;20013;-83
2024/03/22 07:34:55;;;;;;;54.50;29.67;;;;;;;9.87;100.00;101303.75;6108922;23;19912;-83
2024/03/22 07:37:21;;;;;;;52.72;29.73;;;;;;;9.88;100.00;101310.69;6108464;23;20031;-83
2024/03/22 07:39:47;;;;;;;55.58;30.98;;;;;;;9.89;100.00;101307.00;6133345;23;20017;-84
2024/03/22 07:42:12;;;;;;;55.05;29.13;;;;;;;9.91;100.00;101304.06;6132191;23;20004;-82
2024/03/22 07:44:38;;;;;;;55.88;29.23;;;;;;;9.93;100.00;101299.25;6107799;23;20043;-83
2024/03/22 07:47:04;;;;;;;54.85;28.85;;;;;;;9.97;100.00;101308.41;6132254;23;20333;-82
2024/03/22 07:49:31;;;;;;;56.47;30.75;;;;;;;9.98;100.00;101315.38;6131987;23;20451;-84
2024/03/22 07:51:57;;;;;;;54.67;29.27;;;;;;;10.02;100.00;101311.13;6157020;23;20012;-85
2024/03/22 07:54:22;;;;;;;57.97;32.58;;;;;;;10.04;100.00;101320.53;6156984;23;20013;-84
2024/03/22 07:56:48;;;;;;;54.90;29.75;;;;;;;10.07;100.00;101314.66;6158018;23;20087;-84
2024/03/22 07:59:14;;;;;;;53.58;29.42;;;;;;;10.08;100.00;101310.91;6108496;23;20013;-84
2024/03/22 08:01:40;;;;;;;53.65;29.35;;;;;;;10.11;100.00;101315.78;6132262;23;20090;-84
2024/03/22 08:04:06;;;;;;;51.10;29.30;;;;;;;10.10;100.00;101306.13;6154601;23;20348;-84
2024/03/22 08:06:31;;;;;;;54.40;30.40;;;;;;;10.16;100.00;101308.84;6103450;23;20048;-84
2024/03/22 08:08:57;;;;;;;50.97;29.27;;;;;;;10.16;100.00;101306.16;6155305;23;20040;-85
2024/03/22 08:11:24;;;;;;;58.30;31.35;;;;;;;10.16;100.00;101295.47;6154031;23;20013;-84
2024/03/22 08:13:49;;;;;;;54.25;30.48;;;;;;;10.15;100.00;101302.69;6152463;23;20473;-84
2024/03/22 08:16:15;;;;;;;53.80;29.77;;;;;;;10.14;100.00;101298.41;6133137;23;20040;-83
2024/03/22 08:18:41;;;;;;;53.53;29.90;;;;;;;10.09;100.00;101288.47;6127306;23;20016;-84
2024/03/22 08:21:07;;;;;;;55.63;28.67;;;;;;;10.12;100.00;101290.63;6150528;23;20044;-82
2024/03/22 08:23:32;;;;;;;56.45;31.70;;;;;;;10.06;100.00;101290.84;6152302;23;20017;-84
2024/03/22 08:25:58;;;;;;;60.20;30.02;;;;;;;10.02;100.00;101284.34;6128436;23;20040;-83
2024/03/22 08:28:24;;;;;;;55.80;30.75;;;;;;;9.97;100.00;101278.97;6152624;23;20455;-84
2024/03/22 08:30:49;;;;;;;57.15;29.85;;;;;;;9.96;100.00;101283.53;6104372;23;20017;-84
2024/03/22 08:33:15;;;;;;;54.38;28.77;;;;;;;10.00;100.00;101281.13;6103674;23;20065;-83
2024/03/22 08:35:40;;;;;;;56.95;31.23;;;;;;;9.95;100.00;101279.19;6128717;23;20017;-83
2024/03/22 08:38:10;;;;;;;48.97;28.95;;;;;;;9.96;100.00;101280.84;6104622;23;20040;-83
2024/03/22 08:40:39;;;;;;;51.03;28.60;;;;;;;9.98;100.00;101275.22;6132674;23;20357;-83
2024/03/22 08:43:07;;;;;;;51.83;27.65;;;;;;;9.97;100.00;101281.66;6132362;23;20100;-83
2024/03/22 08:45:33;;;;;;;58.38;28.23;;;;;;;9.92;100.00;101274.38;6132777;23;20644;-85
2024/03/22 08:47:59;;;;;;;;;;;;;;;9.88;100.00;101275.91;6133088;23;20096;-83
2024/03/22 08:50:25;;;;;;;52.78;26.77;;;;;;;9.84;100.00;101266.81;6132700;23;19986;-84
2024/03/22 08:52:51;;;;;;;57.88;28.13;;;;;;;9.81;100.00;101259.25;6132776;23;20021;-84
2024/03/22 08:55:17;;;;;;;63.10;31.27;;;;;;;9.79;100.00;101258.72;6107732;23;20387;-85
2024/03/22 08:57:43;;;;;;;57.45;28.67;;;;;;;9.80;100.00;101268.34;6108490;23;20494;-85
2024/03/22 09:00:09;;;;;;;57.67;30.35;;;;;;;9.78;100.00;101271.28;6156754;23;20013;-86
2024/03/22 09:02:35;;;;;;;64.60;29.42;;;;;;;9.77;100.00;101261.66;6132426;23;20024;-85
2024/03/22 09:05:01;;;;;;;58.05;29.30;;;;;;;9.78;100.00;101275.81;6157743;23;20043;-85
2024/03/22 09:07:27;;;;;;;61.78;31.63;;;;;;;9.78;100.00;101268.59;6108242;23;20017;-84
2024/03/22 09:09:52;;;;;;;62.38;32.20;;;;;;;9.81;100.00;101257.38;6131495;23;20013;-86
2024/03/22 09:12:19;;;;;;;57.80;29.13;;;;;;;9.86;100.00;101259.31;6108940;23;20116;-86
2024/03/22 09:14:44;;;;;;;62.58;31.58;;;;;;;9.90;100.00;101248.94;6108547;23;20027;-84
2024/03/22 09:17:11;;;;;;;56.40;29.95;;;;;;;9.90;100.00;101249.75;6156815;23;20355;-85
2024/03/22 09:19:36;;;;;;;57.53;30.75;;;;;;;9.95;100.00;101252.44;6157368;23;20012;-84
2024/03/22 09:22:02;;;;;;;58.53;29.35;;;;;;;9.98;100.00;101254.63;6181134;23;20013;-84
2024/03/22 09:24:28;;;;;;;53.13;28.15;;;;;;;9.99;100.00;101255.44;6106330;23;20106;-84
2024/03/22 09:26:54;;;;;;;54.95;29.52;;;;;;;9.96;100.00;101248.75;6133790;23;20013;-84
2024/03/22 09:29:19;;;;;;;51.45;28.20;;;;;;;9.96;100.00;101243.38;6132452;23;20013;-86
2024/03/22 09:31:45;;;;;;;54.90;29.08;;;;;;;9.97;100.00;101239.66;6134858;23;20033;-88
2024/03/22 09:34:12;;;;;;;54.42;26.83;;;;;;;9.96;100.00;101232.69;6135161;23;20017;-86
2024/03/22 09:36:38;;;;;;;54.88;27.40;;;;;;;9.91;100.00;101239.84;6135144;23;20013;-86
2024/03/22 09:39:03;;;;;;;51.78;25.13;;;;;;;9.87;100.00;101242.22;6134929;23;20036;-86
2024/03/22 09:41:33;;;;;;;55.85;26.88;;;;;;;9.87;100.00;101238.72;6160302;23;20066;-86
2024/03/22 09:44:02;;;;;;;56.35;27.33;;;;;;;9.84;100.00;101232.03;6135432;23;20013;-85
2024/03/22 09:46:29;;;;;;;59.55;26.42;;;;;;;9.81;100.00;101236.00;6160568;23;20057;-87
2024/03/22 09:48:57;;;;;;;59.55;29.20;;;;;;;9.78;100.00;101225.00;6110924;23;20037;-86
2024/03/22 09:51:24;;;;;;;62.13;28.67;;;;;;;9.77;100.00;101223.41;6111115;23;20059;-88
2024/03/22 09:53:52;;;;;;;56.80;27.25;;;;;;;9.75;100.00;101220.16;6134523;23;20060;-85
2024/03/22 09:56:21;;;;;;;60.08;30.98;;;;;;;9.73;100.00;101215.06;6163420;23;20024;-84
2024/03/22 09:58:47;;;;;;;58.50;28.38;;;;;;;9.74;100.00;101213.19;6135603;23;20021;-86
2024/03/22 10:01:13;;;;;;;58.15;27.50;;;;;;;9.74;100.00;101218.53;6135413;23;20055;-86
2024/03/22 10:03:39;;;;;;;52.13;27.05;;;;;;;9.68;100.00;101208.84;6112148;23;20021;-85
2024/03/22 10:06:07;;;;;;;53.00;26.35;;;;;;;9.71;100.00;101211.03;6135821;23;20122;-86
2024/03/22 10:08:33;;;;;;;48.17;25.35;;;;;;;9.75;100.00;101209.44;6111084;23;20043;-87
2024/03/22 10:11:01;;;;;;;52.08;25.23;;;;;;;9.76;100.00;101203.06;6135164;23;20013;-87
2024/03/22 10:13:27;;;;;;;47.72;24.48;;;;;;;9.71;100.00;101198.47;6135989;23;20013;-87
2024/03/22 10:15:52;;;;;;;48.88;24.05;;;;;;;9.76;100.00;101203.88;6135349;23;20016;-87
2024/03/22 10:18:19;;;;;;;48.35;23.80;;;;;;;9.76;100.00;101193.16;6111332;23;20017;-86
2024/03/22 10:20:45;;;;;;;43.95;23.73;;;;;;;9.74;100.00;101191.78;6134420;23;20032;-87
2024/03/22 10:23:10;;;;;;;43.35;21.75;;;;;;;9.77;100.00;101193.97;6135189;23;20043;-85
2024/03/22 10:25:36;;;;;;;41.15;22.15;;;;;;;9.77;100.00;101199.31;6107150;23;20017;-86
2024/03/22 10:28:02;;;;;;;44.72;23.45;;;;;;;9.78;100.00;101201.72;6132807;23;20025;-85
2024/03/22 10:30:28;;;;;;;;;;;;;;;9.77;100.00;101202.00;6111575;23;20013;-84
2024/03/22 10:32:54;;;;;;;40.15;20.80;;;;;;;9.75;100.00;101210.25;6134986;23;19963;-85
2024/03/22 10:35:21;;;;;;;42.47;22.05;;;;;;;9.77;100.00;101218.03;6134610;23;20632;-85
2024/03/22 10:37:49;;;;;;;41.40;22.20;;;;;;;9.79;100.00;101211.38;6135045;23;20380;-86
2024/03/22 10:40:14;;;;;;;46.78;24.23;;;;;;;9.76;100.00;101213.75;6110825;23;20013;-86
2024/03/22 10:42:42;;;;;;;43.08;21.85;;;;;;;9.82;100.00;101210.03;6160261;23;20020;-85
2024/03/22 10:45:09;;;;;;;40.08;21.15;;;;;;;9.82;100.00;101210.03;6110235;23;20087;-86
2024/03/22 10:47:37;;;;;;;42.17;22.13;;;;;;;9.79;100.00;101207.88;6158589;23;20188;-87
2024/03/22 10:50:11;;;;;;;38.25;20.77;;;;;;;9.80;100.00;101201.47;6160137;23;20024;-87
2024/03/22 10:52:41;;;;;;;36.63;20.10;;;;;;;9.81;100.00;101197.72;6110910;23;20019;-86
2024/03/22 10:55:12;;;;;;;39.08;19.08;;;;;;;9.82;100.00;101196.66;6110622;23;20016;-87
2024/03/22 10:57:38;;;;;;;34.70;18.15;;;;;;;9.83;100.00;101192.97;6160716;23;20009;-88
2024/03/22 11:00:12;;;;;;;32.03;16.88;;;;;;;9.86;100.00;101195.13;6134633;23;20096;-89
2024/03/22 11:02:38;;;;;;;27.48;14.95;;;;;;;9.84;100.00;101191.91;6110209;23;20012;-86
2024/03/22 11:05:05;;;;;;;23.42;14.15;;;;;;;9.87;100.00;101201.28;6110607;23;20012;-87
2024/03/22 11:07:31;;;;;;;23.13;13.63;;;;;;;9.87;100.00;101207.44;6134131;23;20040;-89